Time;durP1;ratioP1;P1;durP2;ratioP2;P2;SDS_P1;SDS_P2;PMS_P1;PMS_P2;Temp;Humidity;BMP_temperature;BMP_pressure;BME280_temperature;BME280_humidity;BME280_pressure;Samples;Min_cycle;Max_cycle;Signal;HPM_P1;HPM_P2
2023/01/05 00:02:22;;;;;;;32.57;5.70;;;12.20;99.90;;;;;;4979698;28;20172;-89
2023/01/05 00:04:47;;;;;;;24.27;5.80;;;12.10;99.90;;;;;;4984865;28;20191;-88
2023/01/05 00:07:13;;;;;;;20.47;5.33;;;12.00;99.90;;;;;;4991125;28;20652;-83
2023/01/05 00:09:39;;;;;;;22.73;5.07;;;12.00;99.90;;;;;;4980390;28;20331;-83
2023/01/05 00:23:09;;;;;;;21.23;5.53;;;12.00;99.90;;;;;;4992277;28;20206;-81
2023/01/05 00:25:43;;;;;;;25.43;6.07;;;12.00;99.90;;;;;;4985393;28;20287;-82
2023/01/05 00:28:12;;;;;;;22.97;5.40;;;12.00;99.90;;;;;;4978917;28;20695;-83
2023/01/05 00:30:46;;;;;;;27.57;6.90;;;12.00;99.90;;;;;;4977668;28;20207;-82
2023/01/05 00:33:15;;;;;;;23.63;5.73;;;12.00;99.90;;;;;;4977637;28;20183;-82
2023/01/05 00:35:41;;;;;;;23.97;6.40;;;12.00;99.90;;;;;;4976739;28;20223;-84
2023/01/05 00:38:07;;;;;;;23.63;5.47;;;12.00;99.90;;;;;;4978175;28;20182;-82
2023/01/05 00:40:34;;;;;;;25.10;6.40;;;12.00;99.90;;;;;;4976970;28;20192;-82
2023/01/05 00:43:00;;;;;;;21.60;5.40;;;12.00;99.90;;;;;;4979548;28;20747;-82
2023/01/05 00:45:25;;;;;;;20.97;5.53;;;12.00;99.90;;;;;;4978206;28;20207;-83
2023/01/05 00:47:53;;;;;;;27.30;6.17;;;12.00;99.90;;;;;;4976917;28;20248;-83
2023/01/05 00:50:20;;;;;;;26.03;6.00;;;12.00;99.90;;;;;;4977103;28;20191;-81
2023/01/05 00:52:48;;;;;;;26.40;5.90;;;12.10;99.90;;;;;;4977852;28;20167;-81
2023/01/05 00:55:14;;;;;;;26.33;6.20;;;12.00;99.90;;;;;;4978518;28;20188;-81
2023/01/05 00:57:41;;;;;;;28.07;6.40;;;12.00;99.90;;;;;;4983453;28;20164;-84
2023/01/05 01:00:12;;;;;;;18.67;5.20;;;12.10;99.90;;;;;;4993975;28;20175;-88
2023/01/05 01:02:39;;;;;;;24.73;7.03;;;11.90;99.90;;;;;;4979638;28;20331;-85
2023/01/05 01:05:07;;;;;;;29.40;6.50;;;12.00;99.90;;;;;;4979599;28;20238;-83
2023/01/05 01:07:32;;;;;;;23.07;5.73;;;12.00;99.90;;;;;;4978959;28;20180;-87
2023/01/05 01:09:58;;;;;;;18.20;5.93;;;11.90;99.90;;;;;;4981976;28;20248;-88
2023/01/05 01:12:23;;;;;;;28.17;5.67;;;12.00;99.90;;;;;;4979555;28;20172;-90
2023/01/05 01:14:49;;;;;;;32.40;6.60;;;12.00;99.90;;;;;;4994337;28;20160;-84
2023/01/05 01:17:16;;;;;;;29.30;6.70;;;12.00;99.90;;;;;;4994805;28;20595;-86
2023/01/05 01:19:45;;;;;;;24.13;6.07;;;12.00;99.90;;;;;;4982083;28;20636;-89
2023/01/05 01:22:11;;;;;;;25.57;6.23;;;12.20;99.90;;;;;;4976672;28;20179;-83
2023/01/05 01:24:37;;;;;;;24.80;6.10;;;11.90;99.90;;;;;;4977762;28;20235;-86
2023/01/05 01:27:03;;;;;;;27.47;6.30;;;11.90;99.90;;;;;;4979868;28;20182;-83
2023/01/05 01:29:29;;;;;;;30.93;6.47;;;11.90;99.90;;;;;;4980687;28;20176;-85
2023/01/05 01:31:55;;;;;;;20.97;6.27;;;11.90;99.90;;;;;;4976685;28;20661;-85
2023/01/05 01:34:22;;;;;;;32.27;6.57;;;11.90;99.90;;;;;;4978874;28;20179;-82
2023/01/05 01:36:47;;;;;;;28.03;6.37;;;11.90;99.90;;;;;;4977921;28;20176;-83
2023/01/05 01:39:14;;;;;;;29.07;6.13;;;11.90;99.90;;;;;;4976545;28;20788;-86
2023/01/05 01:41:49;;;;;;;28.83;6.63;;;11.90;99.90;;;;;;4978097;28;20266;-86
2023/01/05 01:44:47;;;;;;;27.17;6.93;;;11.90;99.90;;;;;;4980993;28;20215;-84
2023/01/05 01:47:25;;;;;;;19.70;5.53;;;11.80;99.90;;;;;;4976228;28;20181;-87
2023/01/05 01:49:53;;;;;;;28.97;6.70;;;11.90;99.90;;;;;;4977762;28;20166;-87
2023/01/05 01:52:21;;;;;;;21.60;5.50;;;12.00;99.90;;;;;;4976202;28;20195;-83
2023/01/05 01:54:47;;;;;;;28.60;6.07;;;12.00;99.90;;;;;;4976605;28;20274;-81
2023/01/05 01:57:14;;;;;;;24.63;6.10;;;12.00;99.90;;;;;;4985049;28;20247;-87
2023/01/05 01:59:40;;;;;;;30.50;6.50;;;11.90;99.90;;;;;;4985295;28;20202;-81
2023/01/05 02:02:07;;;;;;;28.50;6.20;;;11.90;99.90;;;;;;4997525;28;20235;-83
2023/01/05 02:04:35;;;;;;;28.20;6.33;;;12.00;99.90;;;;;;4999217;28;20246;-81
2023/01/05 02:07:01;;;;;;;27.00;6.00;;;12.00;99.90;;;;;;4987219;28;20175;-86
2023/01/05 02:09:27;;;;;;;26.17;6.47;;;12.00;99.90;;;;;;4986415;28;20223;-82
2023/01/05 02:12:11;;;;;;;26.47;5.93;;;12.00;99.90;;;;;;4980985;28;20171;-83
2023/01/05 02:14:57;;;;;;;24.10;6.23;;;12.00;99.90;;;;;;4976998;28;20628;-83
2023/01/05 02:17:35;;;;;;;23.60;5.83;;;12.10;99.90;;;;;;4977227;28;20203;-83
2023/01/05 02:20:27;;;;;;;28.63;6.77;;;12.10;99.90;;;;;;4975360;28;20534;-81
2023/01/05 02:23:04;;;;;;;38.03;7.50;;;12.10;99.90;;;;;;4975189;28;20201;-83
2023/01/05 02:26:30;;;;;;;23.90;5.80;;;12.10;99.90;;;;;;4977497;28;20542;-82
2023/01/05 02:29:14;;;;;;;31.80;7.17;;;12.10;99.90;;;;;;4944711;28;20246;-88
2023/01/05 02:32:01;;;;;;;25.67;6.57;;;12.10;99.90;;;;;;4994312;28;20170;-86
2023/01/05 02:34:40;;;;;;;24.80;5.70;;;12.10;99.90;;;;;;4996292;28;20172;-84
2023/01/05 02:37:39;;;;;;;22.90;5.97;;;12.00;99.90;;;;;;4985842;28;20191;-82
2023/01/05 02:40:37;;;;;;;23.73;6.30;;;12.00;99.90;;;;;;4967344;28;20191;-82
2023/01/05 02:43:05;;;;;;;24.80;6.67;;;12.00;99.90;;;;;;4975146;28;20200;-83
2023/01/05 02:45:30;;;;;;;24.10;6.03;;;12.00;99.90;;;;;;4977232;28;20178;-82
2023/01/05 02:47:57;;;;;;;31.13;6.30;;;11.90;99.90;;;;;;4982611;28;20215;-82
2023/01/05 02:50:52;;;;;;;28.07;6.73;;;11.90;99.90;;;;;;4986030;28;20163;-81
2023/01/05 02:53:45;;;;;;;21.70;5.97;;;11.70;99.90;;;;;;4989254;28;20191;-84
2023/01/05 02:57:05;;;;;;;19.37;5.63;;;11.90;99.90;;;;;;4981324;28;20200;-82
2023/01/05 02:59:53;;;;;;;26.17;6.57;;;11.90;99.90;;;;;;4976321;28;20152;-81
2023/01/05 03:02:25;;;;;;;28.63;6.53;;;11.90;99.90;;;;;;4974225;28;20171;-84
2023/01/05 03:04:56;;;;;;;33.03;7.03;;;11.90;99.90;;;;;;4974154;28;20198;-83
2023/01/05 03:07:26;;;;;;;27.97;5.93;;;11.90;99.90;;;;;;4973916;28;20182;-83
2023/01/05 03:09:52;;;;;;;26.97;6.83;;;11.90;99.90;;;;;;4977413;28;20240;-80
2023/01/05 03:15:29;;;;;;;28.40;6.27;;;12.00;99.90;;;;;;4976420;28;20674;-83
2023/01/05 03:18:05;;;;;;;22.73;5.97;;;12.00;99.90;;;;;;4973099;28;20639;-81
2023/01/05 03:20:33;;;;;;;25.10;6.07;;;12.10;99.90;;;;;;4973413;28;20167;-81
2023/01/05 03:38:06;;;;;;;27.23;6.07;;;12.10;99.80;;;;;;4975958;28;20255;-87
2023/01/05 03:40:34;;;;;;;30.47;6.80;;;12.10;99.80;;;;;;4977311;28;20190;-85
2023/01/05 03:43:00;;;;;;;28.93;6.73;;;12.10;99.90;;;;;;4975786;28;20207;-87
2023/01/05 03:45:33;;;;;;;27.67;7.03;;;12.10;99.90;;;;;;4974413;28;20266;-87
2023/01/05 03:47:59;;;;;;;33.07;7.40;;;12.20;99.90;;;;;;4974601;28;20176;-88
2023/01/05 03:50:25;;;;;;;34.77;6.77;;;12.20;99.20;;;;;;4974603;28;20201;-87
2023/01/05 03:52:50;;;;;;;23.30;6.07;;;12.10;99.30;;;;;;4974724;28;20606;-86
2023/01/05 03:55:16;;;;;;;29.70;6.20;;;12.20;98.80;;;;;;4975212;28;20660;-88
2023/01/05 03:57:42;;;;;;;32.50;7.63;;;12.10;99.10;;;;;;4974815;28;20176;-86
2023/01/05 04:00:08;;;;;;;26.90;7.03;;;12.10;99.60;;;;;;4974818;28;20179;-87
2023/01/05 04:02:34;;;;;;;24.43;6.17;;;12.10;99.60;;;;;;4984197;28;20234;-85
2023/01/05 04:04:59;;;;;;;27.33;6.30;;;12.10;99.20;;;;;;4992315;28;20184;-82
2023/01/05 04:07:25;;;;;;;24.73;6.80;;;12.10;99.10;;;;;;4978891;28;20215;-82
2023/01/05 04:09:50;;;;;;;25.37;6.00;;;12.20;99.50;;;;;;4980475;28;20239;-83
2023/01/05 04:12:16;;;;;;;23.07;5.43;;;12.10;99.20;;;;;;4974912;28;20180;-82
2023/01/05 04:14:42;;;;;;;30.43;6.60;;;12.20;98.40;;;;;;4975810;28;20230;-86
2023/01/05 04:17:07;;;;;;;20.17;5.60;;;12.10;98.10;;;;;;4975903;28;20180;-85
2023/01/05 04:19:33;;;;;;;24.87;6.33;;;12.10;98.50;;;;;;4979411;28;20176;-86
2023/01/05 04:21:59;;;;;;;32.23;6.60;;;12.20;98.70;;;;;;4981954;28;20179;-85
2023/01/05 04:24:24;;;;;;;22.77;6.50;;;12.10;99.00;;;;;;4994404;28;20203;-85
2023/01/05 04:26:52;;;;;;;31.37;6.53;;;12.00;99.30;;;;;;4996799;28;20194;-87
2023/01/05 04:29:18;;;;;;;28.73;6.03;;;12.10;98.60;;;;;;4991858;28;20190;-81
2023/01/05 04:31:46;;;;;;;25.77;6.00;;;12.10;98.10;;;;;;5000635;28;20180;-81
2023/01/05 04:37:34;;;;;;;30.13;6.63;;;12.10;96.70;;;;;;4978266;28;20194;-87
2023/01/05 04:39:59;;;;;;;22.53;6.10;;;12.10;97.00;;;;;;4977864;28;20181;-87
2023/01/05 04:42:25;;;;;;;32.20;6.63;;;12.10;97.30;;;;;;4981110;28;20719;-87
2023/01/05 04:44:51;;;;;;;26.50;5.87;;;12.20;97.70;;;;;;4979887;28;20176;-81
2023/01/05 04:47:16;;;;;;;26.47;7.03;;;12.10;97.60;;;;;;5000203;28;20164;-85
2023/01/05 04:49:42;;;;;;;29.57;7.27;;;12.10;97.10;;;;;;5000933;28;20235;-84
2023/01/05 04:52:11;;;;;;;25.93;7.13;;;12.10;96.90;;;;;;4990068;28;20179;-81
2023/01/05 04:54:45;;;;;;;27.77;6.87;;;12.10;96.70;;;;;;4985051;28;20214;-80
2023/01/05 04:57:11;;;;;;;23.17;5.37;;;12.10;95.80;;;;;;4987906;28;20197;-82
2023/01/05 04:59:37;;;;;;;31.87;8.10;;;12.10;95.80;;;;;;4977895;28;20179;-82
2023/01/05 05:02:02;;;;;;;30.10;6.13;;;12.10;96.00;;;;;;4977031;28;20186;-82
2023/01/05 05:04:28;;;;;;;25.23;6.07;;;12.10;95.90;;;;;;4981361;28;20226;-80
2023/01/05 05:06:54;;;;;;;26.67;6.67;;;12.20;95.80;;;;;;4979358;28;20223;-82
2023/01/05 05:09:22;;;;;;;25.73;6.67;;;12.10;95.60;;;;;;4977601;28;20172;-84
2023/01/05 05:11:47;;;;;;;24.33;6.40;;;12.10;95.90;;;;;;4982269;28;20310;-82
2023/01/05 05:14:13;;;;;;;25.50;5.97;;;12.00;95.70;;;;;;4986165;28;20579;-82
2023/01/05 05:16:40;;;;;;;33.13;7.60;;;12.10;95.80;;;;;;4977989;28;20178;-82
2023/01/05 05:19:19;;;;;;;25.50;6.60;;;12.10;95.40;;;;;;4977599;28;20172;-82
2023/01/05 05:21:44;;;;;;;30.97;6.90;;;12.10;96.10;;;;;;4981085;28;20227;-84
2023/01/05 05:24:10;;;;;;;28.90;6.03;;;12.10;95.60;;;;;;4977047;28;20211;-81
2023/01/05 05:26:38;;;;;;;25.87;6.80;;;12.00;95.90;;;;;;4976031;28;20214;-81
2023/01/05 05:29:04;;;;;;;30.57;6.80;;;12.00;96.30;;;;;;4977766;28;20234;-83
2023/01/05 05:31:30;;;;;;;24.67;5.97;;;12.10;96.70;;;;;;4977373;28;20176;-81
2023/01/05 05:33:55;;;;;;;31.37;6.47;;;12.00;97.10;;;;;;4976426;28;20212;-81
2023/01/05 05:36:21;;;;;;;24.83;6.00;;;11.90;97.80;;;;;;4976717;28;20168;-81
2023/01/05 05:38:47;;;;;;;29.67;6.50;;;11.90;97.90;;;;;;4974971;28;20241;-82
2023/01/05 05:41:12;;;;;;;29.03;6.77;;;12.00;97.80;;;;;;4974678;28;20188;-82
2023/01/05 05:43:38;;;;;;;30.40;7.03;;;11.90;98.00;;;;;;4958553;28;20274;-86
2023/01/05 05:46:04;;;;;;;27.43;7.00;;;12.00;99.30;;;;;;4975023;28;20183;-81
2023/01/05 05:48:29;;;;;;;29.67;7.80;;;11.90;99.10;;;;;;4975916;28;20175;-81
2023/01/05 05:50:55;;;;;;;35.67;7.87;;;11.90;99.50;;;;;;4974965;28;20179;-82
2023/01/05 05:53:21;;;;;;;27.27;6.77;;;11.80;99.90;;;;;;4978508;28;20171;-82
2023/01/05 05:55:50;;;;;;;30.50;7.00;;;11.80;99.90;;;;;;4980484;28;20206;-81
2023/01/05 05:58:19;;;;;;;29.53;7.33;;;11.80;99.90;;;;;;4987718;28;20164;-86
2023/01/05 06:00:45;;;;;;;35.83;7.40;;;11.80;99.90;;;;;;4980044;28;20179;-85
2023/01/05 06:03:12;;;;;;;29.23;7.57;;;11.80;99.90;;;;;;4980377;28;20212;-87
2023/01/05 06:05:38;;;;;;;35.47;8.20;;;11.90;99.90;;;;;;4976583;28;20231;-86
2023/01/05 06:08:03;;;;;;;26.83;6.30;;;11.80;99.90;;;;;;4983771;28;20184;-86
2023/01/05 06:10:29;;;;;;;34.50;7.50;;;11.80;99.90;;;;;;4980056;28;20182;-88
2023/01/05 06:12:56;;;;;;;22.53;6.77;;;11.80;99.90;;;;;;4976569;28;20173;-86
2023/01/05 06:15:23;;;;;;;32.47;7.00;;;11.90;99.90;;;;;;4976124;28;20279;-84
2023/01/05 06:17:49;;;;;;;26.90;7.43;;;11.90;99.90;;;;;;4975784;28;20215;-85
2023/01/05 06:20:16;;;;;;;32.77;7.53;;;11.80;99.90;;;;;;4976426;28;20180;-86
2023/01/05 06:22:43;;;;;;;30.60;7.67;;;11.80;99.90;;;;;;4979882;28;20183;-85
2023/01/05 06:25:10;;;;;;;28.03;6.30;;;11.90;99.90;;;;;;4976551;28;20186;-85
2023/01/05 06:27:36;;;;;;;34.60;7.60;;;11.90;99.60;;;;;;4976608;28;20623;-84
2023/01/05 06:30:03;;;;;;;33.17;7.13;;;11.90;98.90;;;;;;4975182;28;20186;-86
2023/01/05 06:32:28;;;;;;;28.93;7.63;;;11.90;97.90;;;;;;4980948;28;20176;-85
2023/01/05 06:34:54;;;;;;;28.67;7.87;;;11.90;98.00;;;;;;4980295;28;20283;-85
2023/01/05 06:37:19;;;;;;;27.77;7.70;;;12.00;97.60;;;;;;4980490;28;20211;-85
2023/01/05 06:39:45;;;;;;;31.97;7.03;;;11.90;97.30;;;;;;4980337;28;20227;-83
2023/01/05 06:42:11;;;;;;;28.47;6.23;;;11.90;97.20;;;;;;4978702;28;20281;-82
2023/01/05 06:44:36;;;;;;;23.77;6.83;;;11.80;97.20;;;;;;4989627;28;20211;-81
2023/01/05 06:47:02;;;;;;;28.53;6.70;;;11.80;97.40;;;;;;4994209;28;20534;-81
2023/01/05 06:49:29;;;;;;;27.60;6.23;;;11.70;96.90;;;;;;4996306;28;20176;-82
2023/01/05 06:51:54;;;;;;;32.83;7.13;;;11.80;96.80;;;;;;4985979;28;20197;-86
2023/01/05 06:54:44;;;;;;;24.87;6.97;;;11.80;96.50;;;;;;4977977;28;20171;-88
2023/01/05 06:57:10;;;;;;;27.43;6.33;;;11.80;96.50;;;;;;4977799;28;20191;-87
2023/01/05 06:59:36;;;;;;;27.43;6.87;;;11.80;96.30;;;;;;4996097;28;20239;-82
2023/01/05 07:02:02;;;;;;;28.73;6.57;;;11.70;96.10;;;;;;4999001;28;20248;-84
2023/01/05 07:04:50;;;;;;;33.40;7.33;;;11.90;96.50;;;;;;4988832;28;20254;-83
2023/01/05 07:07:15;;;;;;;31.23;7.00;;;11.80;96.20;;;;;;4979191;28;20176;-86
2023/01/05 07:09:47;;;;;;;30.77;6.80;;;11.70;95.80;;;;;;4980577;28;20183;-83
2023/01/05 07:12:13;;;;;;;26.60;6.50;;;11.80;96.00;;;;;;4981739;28;20184;-85
2023/01/05 07:14:39;;;;;;;28.83;6.10;;;11.80;95.70;;;;;;4984746;28;20282;-85
2023/01/05 07:17:04;;;;;;;28.63;6.37;;;11.80;96.00;;;;;;4980489;28;20263;-80
2023/01/05 07:19:30;;;;;;;20.43;5.60;;;11.70;95.20;;;;;;4984577;28;20194;-80
2023/01/05 07:21:56;;;;;;;25.63;6.73;;;11.70;95.60;;;;;;4977247;28;20172;-82
2023/01/05 07:24:22;;;;;;;30.10;6.53;;;11.70;95.70;;;;;;4975010;28;20635;-82
2023/01/05 07:26:49;;;;;;;29.97;6.70;;;11.70;95.30;;;;;;4975129;28;20675;-81
2023/01/05 07:29:15;;;;;;;26.50;6.73;;;11.70;95.80;;;;;;4982971;28;20190;-82
2023/01/05 07:31:41;;;;;;;31.07;6.87;;;11.70;95.60;;;;;;4977816;28;20160;-83
2023/01/05 07:34:08;;;;;;;28.03;7.43;;;11.70;95.40;;;;;;4981453;28;20198;-84
2023/01/05 07:36:35;;;;;;;30.73;7.00;;;11.70;95.20;;;;;;4977041;28;20180;-88
2023/01/05 07:39:01;;;;;;;29.70;6.10;;;11.70;95.50;;;;;;4974778;28;20613;-86
2023/01/05 07:41:27;;;;;;;26.23;6.77;;;11.70;96.00;;;;;;4975647;28;20219;-81
2023/01/05 07:43:55;;;;;;;27.23;7.17;;;11.70;95.50;;;;;;4977619;28;20668;-81
2023/01/05 07:46:21;;;;;;;30.73;6.47;;;11.60;95.40;;;;;;4979883;28;20193;-81
2023/01/05 07:48:46;;;;;;;27.33;6.23;;;11.60;96.10;;;;;;4975246;28;20632;-81
2023/01/05 07:51:12;;;;;;;25.77;6.33;;;11.60;96.20;;;;;;4974420;28;20644;-82
2023/01/05 07:53:38;;;;;;;32.57;6.63;;;11.60;96.20;;;;;;4974446;28;20186;-82
2023/01/05 07:56:05;;;;;;;26.50;6.53;;;11.70;96.00;;;;;;4973722;28;20623;-82
2023/01/05 07:58:32;;;;;;;25.57;6.37;;;11.60;96.50;;;;;;4973609;28;20266;-82
2023/01/05 08:01:06;;;;;;;32.50;7.23;;;11.60;96.30;;;;;;4973139;28;20505;-83
2023/01/05 08:03:32;;;;;;;28.67;6.73;;;11.60;96.30;;;;;;4973934;28;20302;-81
2023/01/05 08:06:04;;;;;;;24.30;6.47;;;11.70;96.50;;;;;;4976534;28;20226;-82
2023/01/05 08:08:29;;;;;;;25.83;6.73;;;11.60;97.50;;;;;;4978032;28;20172;-87
2023/01/05 08:10:55;;;;;;;34.40;7.67;;;11.60;97.20;;;;;;4976697;28;20588;-81
2023/01/05 08:16:26;;;;;;;28.27;6.50;;;11.60;98.10;;;;;;4937172;29;20629;-82
2023/01/05 08:18:52;;;;;;;35.67;6.63;;;11.70;98.40;;;;;;4971747;28;20202;-80
2023/01/05 08:21:18;;;;;;;32.70;6.83;;;11.50;98.90;;;;;;4982346;28;20176;-82
2023/01/05 08:23:44;;;;;;;35.13;7.47;;;11.50;99.10;;;;;;4986461;28;20737;-87
2023/01/05 08:26:13;;;;;;;31.07;7.43;;;11.50;98.90;;;;;;4981474;28;20167;-85
2023/01/05 08:28:39;;;;;;;31.73;7.47;;;11.60;99.10;;;;;;4979097;28;20176;-83
2023/01/05 08:31:09;;;;;;;36.10;8.13;;;11.60;99.60;;;;;;4979203;28;20285;-86
2023/01/05 08:33:34;;;;;;;33.33;6.83;;;11.50;99.60;;;;;;4978498;28;20186;-85
2023/01/05 08:36:00;;;;;;;32.37;7.33;;;11.50;99.90;;;;;;4979629;28;20215;-85
2023/01/05 08:38:26;;;;;;;28.30;6.93;;;11.50;99.90;;;;;;4979863;28;20637;-82
2023/01/05 08:40:52;;;;;;;26.33;6.63;;;11.60;99.90;;;;;;4977309;28;20278;-85
2023/01/05 08:43:18;;;;;;;30.03;8.03;;;11.60;99.70;;;;;;4976910;28;20220;-86
2023/01/05 08:45:49;;;;;;;32.23;7.40;;;11.60;99.90;;;;;;4977207;28;20198;-85
2023/01/05 08:48:15;;;;;;;26.93;7.33;;;11.70;99.90;;;;;;4978156;28;20183;-87
2023/01/05 08:50:41;;;;;;;28.27;7.23;;;11.70;99.90;;;;;;4978133;28;20263;-83
2023/01/05 08:53:06;;;;;;;28.20;7.20;;;11.60;99.70;;;;;;4977482;28;20267;-82
2023/01/05 08:55:32;;;;;;;29.97;7.10;;;11.60;99.90;;;;;;4977897;28;20679;-84
2023/01/05 08:57:57;;;;;;;26.53;7.27;;;11.60;99.90;;;;;;4978068;28;20175;-88
2023/01/05 09:00:23;;;;;;;32.10;7.70;;;11.60;99.60;;;;;;4977590;28;20198;-86
2023/01/05 09:02:49;;;;;;;34.27;7.27;;;11.60;99.90;;;;;;4987491;28;20210;-83
2023/01/05 09:05:15;;;;;;;34.40;7.40;;;11.70;99.90;;;;;;4999270;28;20163;-85
2023/01/05 09:07:41;;;;;;;24.23;6.10;;;11.70;99.80;;;;;;4999146;28;20248;-81
2023/01/05 09:10:07;;;;;;;28.20;6.60;;;11.70;99.90;;;;;;4985832;28;20199;-83
2023/01/05 09:12:36;;;;;;;26.13;7.30;;;11.70;99.90;;;;;;4995000;28;20166;-81
2023/01/05 09:15:03;;;;;;;30.73;6.90;;;11.80;98.90;;;;;;4994447;28;20183;-86
2023/01/05 09:17:34;;;;;;;28.23;6.90;;;11.90;97.40;;;;;;4985809;28;20183;-87
2023/01/05 09:20:15;;;;;;;27.67;7.03;;;11.80;97.60;;;;;;4987977;28;20250;-87
2023/01/05 09:22:41;;;;;;;31.63;6.50;;;11.80;98.40;;;;;;4991117;28;20172;-88
2023/01/05 09:25:13;;;;;;;27.67;6.83;;;11.80;98.00;;;;;;4980332;28;20647;-85
2023/01/05 09:27:38;;;;;;;31.50;7.33;;;11.90;98.50;;;;;;4978658;28;20654;-88
2023/01/05 09:30:04;;;;;;;27.50;6.83;;;11.90;97.20;;;;;;4978076;28;20218;-85
2023/01/05 09:32:30;;;;;;;30.73;7.23;;;11.90;97.00;;;;;;4979194;28;20175;-82
2023/01/05 09:34:56;;;;;;;33.17;7.47;;;11.90;97.10;;;;;;4984735;28;20227;-81
2023/01/05 09:37:22;;;;;;;33.70;7.20;;;11.90;97.50;;;;;;4989632;28;20243;-83
2023/01/05 09:39:50;;;;;;;35.20;6.97;;;11.90;97.10;;;;;;4979087;28;20179;-83
2023/01/05 09:42:32;;;;;;;24.77;6.43;;;11.90;96.60;;;;;;4977799;28;20191;-86
2023/01/05 09:45:04;;;;;;;31.30;6.67;;;11.80;96.20;;;;;;4976660;28;20214;-88
2023/01/05 09:47:41;;;;;;;28.23;6.90;;;11.80;96.90;;;;;;4975920;28;20230;-89
2023/01/05 09:50:20;;;;;;;28.83;7.03;;;12.00;96.50;;;;;;4977529;28;20191;-88
2023/01/05 09:52:47;;;;;;;33.43;7.17;;;12.00;95.70;;;;;;4992050;28;20235;-86
2023/01/05 09:55:18;;;;;;;31.13;7.30;;;12.00;95.50;;;;;;4980196;28;20202;-89
2023/01/05 09:57:56;;;;;;;21.90;6.53;;;12.00;95.20;;;;;;4977185;28;20726;-83
2023/01/05 10:00:24;;;;;;;32.10;7.77;;;12.10;94.20;;;;;;4975429;28;20176;-82
2023/01/05 10:02:57;;;;;;;25.77;6.30;;;12.10;93.50;;;;;;4975750;28;20218;-82
2023/01/05 10:05:26;;;;;;;28.80;7.87;;;12.10;93.40;;;;;;4975478;28;20274;-83
2023/01/05 10:08:14;;;;;;;31.53;6.73;;;12.20;92.00;;;;;;4975433;28;20179;-82
2023/01/05 10:13:01;;;;;;;28.37;7.07;;;12.30;91.70;;;;;;4976821;28;20175;-83
2023/01/05 10:13:44;;;;;;;21.67;6.37;;;12.20;91.50;;;;;;4978381;28;20612;-81
2023/01/05 10:16:15;;;;;;;27.90;7.23;;;12.20;91.00;;;;;;4976786;28;20666;-83
2023/01/05 10:18:41;;;;;;;31.43;6.00;;;12.30;91.20;;;;;;4975459;28;20282;-83
2023/01/05 10:21:14;;;;;;;26.40;6.30;;;12.50;90.00;;;;;;4974662;28;20183;-84
2023/01/05 10:23:56;;;;;;;27.40;6.63;;;12.40;88.80;;;;;;4975362;28;20211;-82
2023/01/05 10:26:32;;;;;;;24.63;6.40;;;12.40;87.00;;;;;;4976703;28;20182;-82
2023/01/05 10:29:12;;;;;;;24.27;6.20;;;12.30;86.80;;;;;;4979046;28;20180;-83
2023/01/05 10:31:53;;;;;;;23.73;6.77;;;12.40;87.30;;;;;;4975916;28;20666;-83
2023/01/05 10:34:21;;;;;;;30.53;6.77;;;12.40;88.20;;;;;;4974068;28;20186;-83
2023/01/05 10:37:31;;;;;;;29.77;6.77;;;12.60;85.80;;;;;;4974390;28;20177;-82
2023/01/05 10:40:11;;;;;;;25.73;6.20;;;12.40;87.10;;;;;;4934655;29;20193;-84
2023/01/05 10:42:47;;;;;;;22.93;6.03;;;12.30;88.60;;;;;;4982065;28;20214;-82
2023/01/05 10:45:15;;;;;;;25.93;6.40;;;12.30;89.00;;;;;;4979603;28;20183;-81
2023/01/05 10:47:46;;;;;;;31.03;7.13;;;12.30;89.30;;;;;;4979229;28;20259;-84
2023/01/05 10:50:33;;;;;;;30.87;7.13;;;12.30;89.10;;;;;;4976403;28;20179;-88
2023/01/05 10:53:07;;;;;;;25.77;6.90;;;12.40;89.00;;;;;;4976544;28;20172;-88
2023/01/05 10:55:42;;;;;;;26.63;6.60;;;12.40;89.60;;;;;;4978138;28;20175;-85
2023/01/05 10:58:24;;;;;;;26.43;6.53;;;12.40;90.30;;;;;;4983188;28;20416;-87
2023/01/05 11:01:12;;;;;;;27.67;6.37;;;12.50;90.20;;;;;;4979160;28;20263;-90
2023/01/05 11:03:41;;;;;;;24.80;6.37;;;12.60;90.30;;;;;;4975481;28;20251;-88
2023/01/05 11:06:08;;;;;;;24.87;5.87;;;12.60;87.30;;;;;;4977372;28;20164;-87
2023/01/05 11:08:34;;;;;;;24.97;7.30;;;12.60;88.60;;;;;;4975712;28;20172;-87
2023/01/05 11:11:07;;;;;;;30.00;6.40;;;12.50;89.30;;;;;;4976338;28;20254;-85
2023/01/05 11:13:41;;;;;;;30.53;7.43;;;12.60;90.50;;;;;;4975326;28;20260;-88
2023/01/05 11:16:19;;;;;;;28.63;7.00;;;12.60;90.10;;;;;;4975886;28;20175;-88
2023/01/05 11:18:45;;;;;;;33.67;7.03;;;12.60;90.10;;;;;;4977502;28;20259;-88
2023/01/05 11:21:23;;;;;;;28.37;6.83;;;12.60;90.70;;;;;;4993399;28;20226;-84
2023/01/05 11:23:51;;;;;;;32.60;7.77;;;12.70;91.30;;;;;;4996617;28;20225;-84
2023/01/05 11:26:26;;;;;;;29.33;6.43;;;12.90;90.60;;;;;;4992686;28;20157;-87
2023/01/05 11:29:00;;;;;;;27.47;7.43;;;12.90;89.00;;;;;;4983305;28;20167;-85
2023/01/05 11:31:52;;;;;;;25.97;7.23;;;12.90;88.70;;;;;;4976239;28;20163;-86
2023/01/05 11:34:33;;;;;;;33.00;7.77;;;12.90;90.10;;;;;;4976701;28;20171;-88
2023/01/05 11:37:03;;;;;;;28.83;7.40;;;12.80;90.80;;;;;;4976668;28;20207;-86
2023/01/05 11:39:39;;;;;;;27.23;7.23;;;12.80;90.60;;;;;;4981155;28;20173;-83
2023/01/05 11:42:23;;;;;;;32.87;7.00;;;12.80;91.60;;;;;;4985128;28;20192;-87
2023/01/05 11:44:57;;;;;;;27.87;7.03;;;12.80;92.50;;;;;;4978449;28;20219;-85
2023/01/05 11:47:30;;;;;;;30.53;7.50;;;12.90;92.40;;;;;;4979513;28;20521;-84
2023/01/05 11:50:13;;;;;;;28.63;6.73;;;12.90;92.40;;;;;;4978187;28;20193;-87
2023/01/05 11:52:45;;;;;;;26.67;7.03;;;12.90;92.40;;;;;;4979893;28;20177;-87
2023/01/05 11:55:23;;;;;;;26.63;6.33;;;12.90;91.80;;;;;;4999899;28;20169;-85
2023/01/05 11:57:51;;;;;;;28.33;7.57;;;12.90;93.40;;;;;;4981472;28;20229;-87
2023/01/05 12:00:36;;;;;;;26.00;6.67;;;13.00;92.90;;;;;;4979989;28;20172;-86
2023/01/05 12:03:23;;;;;;;30.77;7.70;;;13.20;91.80;;;;;;4977431;28;20216;-87
2023/01/05 12:05:54;;;;;;;27.30;7.33;;;13.00;93.50;;;;;;4978771;28;20167;-86
2023/01/05 12:08:28;;;;;;;28.90;7.03;;;13.00;94.10;;;;;;4977344;28;20312;-86
2023/01/05 12:11:15;;;;;;;34.47;7.57;;;13.00;94.20;;;;;;4994179;28;20174;-84
2023/01/05 12:14:12;;;;;;;28.80;7.33;;;13.10;92.60;;;;;;4987597;28;20180;-85
2023/01/05 12:16:55;;;;;;;29.57;6.90;;;13.00;94.00;;;;;;4981757;28;20247;-89
2023/01/05 12:20:08;;;;;;;32.07;7.77;;;13.10;93.40;;;;;;4977873;28;20179;-89
2023/01/05 12:23:04;;;;;;;36.90;7.43;;;13.00;94.20;;;;;;4927674;28;20190;-83
2023/01/05 12:26:03;;;;;;;35.73;8.80;;;13.00;95.80;;;;;;4980828;28;20186;-84
2023/01/05 12:28:43;;;;;;;36.93;8.43;;;12.90;96.70;;;;;;4978298;28;20180;-83
2023/01/05 12:31:18;;;;;;;32.50;8.37;;;12.90;96.80;;;;;;4977520;28;20178;-83
2023/01/05 12:34:09;;;;;;;31.17;7.40;;;12.90;98.60;;;;;;4979427;28;20268;-82
2023/01/05 12:37:05;;;;;;;31.67;7.03;;;13.00;97.70;;;;;;4978724;28;20254;-82
2023/01/05 12:40:05;;;;;;;31.50;8.00;;;13.00;99.90;;;;;;4977808;28;20244;-83
2023/01/05 12:42:58;;;;;;;33.07;7.67;;;13.00;99.90;;;;;;4977397;28;20193;-85
2023/01/05 12:45:51;;;;;;;31.30;7.73;;;12.90;99.90;;;;;;4976408;28;20644;-84
2023/01/05 12:48:58;;;;;;;34.53;7.97;;;12.90;99.90;;;;;;4976665;28;20175;-83
2023/01/05 12:51:33;;;;;;;38.93;8.60;;;12.80;99.90;;;;;;4968476;28;20189;-84
2023/01/05 12:54:03;;;;;;;30.17;7.90;;;12.80;99.90;;;;;;4977810;28;20182;-82
2023/01/05 12:56:36;;;;;;;33.27;7.33;;;12.80;99.90;;;;;;4976135;28;20192;-82
2023/01/05 12:59:22;;;;;;;39.30;7.83;;;13.00;99.90;;;;;;4975892;28;20187;-81
2023/01/05 13:01:50;;;;;;;33.37;8.37;;;13.00;99.90;;;;;;4977371;28;20175;-82
2023/01/05 13:04:38;;;;;;;30.57;7.73;;;13.00;99.90;;;;;;4976208;28;20212;-82
2023/01/05 13:07:13;;;;;;;26.57;7.23;;;13.10;99.90;;;;;;4977579;28;20186;-83
2023/01/05 13:09:42;;;;;;;31.40;7.70;;;13.10;99.90;;;;;;4980746;28;20251;-82
2023/01/05 13:12:11;;;;;;;34.33;8.63;;;13.00;99.90;;;;;;4980564;28;20254;-83
2023/01/05 13:14:51;;;;;;;35.80;8.33;;;13.10;99.90;;;;;;4977336;28;20176;-83
2023/01/05 13:17:28;;;;;;;30.67;7.73;;;13.30;99.90;;;;;;4979574;28;20196;-86
2023/01/05 13:20:17;;;;;;;31.50;8.47;;;13.20;99.90;;;;;;4981110;28;20185;-89
2023/01/05 13:22:44;;;;;;;24.50;6.93;;;13.10;99.90;;;;;;4982812;28;20176;-87
2023/01/05 13:25:22;;;;;;;22.03;7.27;;;13.00;99.90;;;;;;4980796;28;20219;-89
2023/01/05 13:27:48;;;;;;;26.20;7.43;;;13.00;99.90;;;;;;4980914;28;20201;-86
2023/01/05 13:30:40;;;;;;;16.97;6.13;;;13.00;99.90;;;;;;4980931;28;20641;-84
2023/01/05 13:33:21;;;;;;;12.47;5.73;;;13.00;99.90;;;;;;4995181;28;20183;-83
2023/01/05 13:36:15;;;;;;;20.97;7.40;;;12.90;99.90;;;;;;4997333;28;20205;-84